Pelican State — WDE4433 — position and weather

sailwx.info

Track history (hours):
 
Tides and Currents Weather Stations Pressure Air Temp Water Temp Dewpoint Dewpoint Depression Visibility Wind Speed Wind Dir Waves Ship Positions

Pelican State

Owner: Crowley Petroleum Serives, Jacksonville, FL. More information available from US FCC via Universal Licensing System and Coast Guard Vessel Documentation Center.

Last reported at 2016-Dec-03 22:22 UTC. Time now 2016-Dec-04 06:11 UTC.
Position N 45°10' W 125°45'.

Length 183 m; draft 10.6 m.

Type: Tanker. MMSI: 367353110.

Date/timePositionNaut miles runAvg speedWind from/ knotsBaromVisibWave heightAir tempDewpointWater temp
2016-Dec-03 22:22N 45°10' W 125°45'18212.2
2016-Dec-03 07:28N 48°11' W 125°19'1011.0
2016-Dec-03 06:33N 48°20' W 125°12'1111.2
2016-Dec-03 05:33N 48°29' W 125°03'10 9.9
2016-Dec-03 04:33N 48°31' W 124°48'1111.6
2016-Dec-03 03:33N 48°27' W 124°31'1212.1
2016-Dec-03 02:33N 48°23' W 124°14'1312.7
2016-Dec-03 01:33N 48°18' W 123°57'1312.5
2016-Dec-03 00:33N 48°16' W 123°38'1111.2
2016-Dec-02 23:33N 48°10' W 123°24'1010.3
2016-Dec-02 22:33N 48°14' W 123°09'1211.7
2016-Dec-02 21:33N 48°21' W 122°56'1111.1
2016-Dec-02 20:32N 48°30' W 122°44'1111.2
2016-Dec-02 19:33N 48°41' W 122°44'10 9.9
2016-Dec-02 18:31N 48°51' W 122°46'1 0.0
2016-Dec-02 03:08N 48°52' W 122°46'0 0.0
2016-Dec-01 12:04N 48°52' W 122°46'2 3.3
2016-Dec-01 11:33N 48°50' W 122°47'4 4.3
2016-Dec-01 10:32N 48°46' W 122°46'1312.9
2016-Dec-01 09:33N 48°33' W 122°45'1313.1
2016-Dec-01 08:33N 48°21' W 122°54'1413.7
2016-Dec-01 07:32N 48°14' W 123°12'1010.3
2016-Dec-01 06:33N 48°11' W 123°26'1211.6
2016-Dec-01 05:33N 48°13' W 123°43'1211.9
2016-Dec-01 04:33N 48°15' W 124°01'1212.5
2016-Dec-01 03:33N 48°20' W 124°18'1312.8
2016-Dec-01 02:33N 48°26' W 124°36'9 8.9
2016-Dec-01 01:33N 48°29' W 124°48'1110.8
2016-Dec-01 00:33N 48°25' W 125°03'1212.1
2016-Nov-30 23:33N 48°14' W 125°14'150 8.3
2016-Nov-30 05:26N 45°46' W 125°44'50510.3
2016-Nov-28 04:17N 37°34' W 123°13'811.1
2016-Nov-28 03:33N 37°35' W 123°03'1212.5
2016-Nov-28 02:33N 37°42' W 122°49'1110.8
2016-Nov-28 01:33N 37°46' W 122°37'1212.2
2016-Nov-28 00:33N 37°54' W 122°25'3 2.7
2016-Nov-27 23:32N 37°55' W 122°22'0 0.0
2016-Nov-27 22:29N 37°55' W 122°22'0 0.0
2016-Nov-27 21:32N 37°55' W 122°22'0 0.0
2016-Nov-27 20:26N 37°55' W 122°22'0 0.0
2016-Nov-27 18:20N 37°55' W 122°22'0 0.0
2016-Nov-27 17:26N 37°55' W 122°22'0 0.0
2016-Nov-27 16:32N 37°55' W 122°22'0 0.0
2016-Nov-27 15:32N 37°55' W 122°22'0 0.0
2016-Nov-27 14:32N 37°55' W 122°22'0 0.0
2016-Nov-27 13:32N 37°55' W 122°22'0 0.0
2016-Nov-27 12:32N 37°55' W 122°22'0 0.0
2016-Nov-27 11:32N 37°55' W 122°22'0 0.0
2016-Nov-27 10:20N 37°55' W 122°22'0 0.0
2016-Nov-27 09:32N 37°55' W 122°22'0 0.0
2016-Nov-27 08:32N 37°55' W 122°22'0 0.0
2016-Nov-27 07:32N 37°55' W 122°22'0 0.0
2016-Nov-27 06:32N 37°55' W 122°22'0 0.0
2016-Nov-27 05:32N 37°55' W 122°22'0 0.0
2016-Nov-27 04:32N 37°55' W 122°22'0 0.0
2016-Nov-27 03:32N 37°55' W 122°22'0 0.0
2016-Nov-27 02:29N 37°55' W 122°22'0 0.0
2016-Nov-27 01:32N 37°55' W 122°22'0 0.0
2016-Nov-27 00:32N 37°55' W 122°22'0 0.0
2016-Nov-26 23:20N 37°55' W 122°22'0 0.0
2016-Nov-26 22:32N 37°55' W 122°22'0 0.0
2016-Nov-26 18:14N 37°55' W 122°22'1 0.8
2016-Nov-26 17:33N 37°54' W 122°22'3 2.3
2016-Nov-26 16:25N 37°55' W 122°25'0 0.0
2016-Nov-26 15:30N 37°55' W 122°25'0 0.0
2016-Nov-26 14:33N 37°55' W 122°25'0 0.0
2016-Nov-26 13:33N 37°55' W 122°25'0 0.0
2016-Nov-26 12:30N 37°55' W 122°25'0 0.0
2016-Nov-26 11:33N 37°55' W 122°25'0 0.0
2016-Nov-26 10:30N 37°55' W 122°25'0 0.0
2016-Nov-26 09:30N 37°55' W 122°25'0 0.0
2016-Nov-26 08:33N 37°55' W 122°25'0 0.0
2016-Nov-26 07:30N 37°55' W 122°25'0 0.0
2016-Nov-26 06:33N 37°55' W 122°25'0 0.0
2016-Nov-26 05:33N 37°55' W 122°25'0 0.0
2016-Nov-26 04:33N 37°55' W 122°25'0 0.0
2016-Nov-26 03:30N 37°55' W 122°25'0 0.0
2016-Nov-26 02:33N 37°55' W 122°25'0 0.0
2016-Nov-26 01:27N 37°55' W 122°25'0 0.0
2016-Nov-26 00:30N 37°55' W 122°25'0 0.0
2016-Nov-25 23:30N 37°55' W 122°25'0 0.0
2016-Nov-25 22:24N 37°55' W 122°25'0 0.0
2016-Nov-25 21:33N 37°55' W 122°25'0 0.0
2016-Nov-25 20:33N 37°55' W 122°25'0 0.0
2016-Nov-25 19:30N 37°55' W 122°25'0 0.0
2016-Nov-25 17:30N 37°55' W 122°25'3 2.9
2016-Nov-25 16:33N 37°53' W 122°25'1111.2
2016-Nov-25 15:34N 37°46' W 122°37'1211.5
2016-Nov-25 14:33N 37°40' W 122°49'1111.0
2016-Nov-25 13:33N 37°34' W 123°00'1313.2
2016-Nov-25 12:33N 37°32' W 123°17'  
Track history (hours):
 
Tides and Currents Weather Stations Pressure Air Temp Water Temp Dewpoint Dewpoint Depression Visibility Wind Speed Wind Dir Waves Ship Positions

Pelican State

Owner: Crowley Petroleum Serives, Jacksonville, FL. More information available from US FCC via Universal Licensing System and Coast Guard Vessel Documentation Center.

Last reported at 2016-Dec-03 22:22 UTC. Time now 2016-Dec-04 06:11 UTC.
Position N 45°10' W 125°45'.

Length 183 m; draft 10.6 m.

Type: Tanker. MMSI: 367353110.

Date/timePositionNaut miles runAvg speedWind from/ knotsBaromVisibWave heightAir tempDewpointWater temp
2016-Dec-03 22:22N 45°10' W 125°45'18212.2
2016-Dec-03 07:28N 48°11' W 125°19'1011.0
2016-Dec-03 06:33N 48°20' W 125°12'1111.2
2016-Dec-03 05:33N 48°29' W 125°03'10 9.9
2016-Dec-03 04:33N 48°31' W 124°48'1111.6
2016-Dec-03 03:33N 48°27' W 124°31'1212.1
2016-Dec-03 02:33N 48°23' W 124°14'1312.7
2016-Dec-03 01:33N 48°18' W 123°57'1312.5
2016-Dec-03 00:33N 48°16' W 123°38'1111.2
2016-Dec-02 23:33N 48°10' W 123°24'1010.3
2016-Dec-02 22:33N 48°14' W 123°09'1211.7
2016-Dec-02 21:33N 48°21' W 122°56'1111.1
2016-Dec-02 20:32N 48°30' W 122°44'1111.2
2016-Dec-02 19:33N 48°41' W 122°44'10 9.9
2016-Dec-02 18:31N 48°51' W 122°46'1 0.0
2016-Dec-02 03:08N 48°52' W 122°46'0 0.0
2016-Dec-01 12:04N 48°52' W 122°46'2 3.3
2016-Dec-01 11:33N 48°50' W 122°47'4 4.3
2016-Dec-01 10:32N 48°46' W 122°46'1312.9
2016-Dec-01 09:33N 48°33' W 122°45'1313.1
2016-Dec-01 08:33N 48°21' W 122°54'1413.7
2016-Dec-01 07:32N 48°14' W 123°12'1010.3
2016-Dec-01 06:33N 48°11' W 123°26'1211.6
2016-Dec-01 05:33N 48°13' W 123°43'1211.9
2016-Dec-01 04:33N 48°15' W 124°01'1212.5
2016-Dec-01 03:33N 48°20' W 124°18'1312.8
2016-Dec-01 02:33N 48°26' W 124°36'9 8.9
2016-Dec-01 01:33N 48°29' W 124°48'1110.8
2016-Dec-01 00:33N 48°25' W 125°03'1212.1
2016-Nov-30 23:33N 48°14' W 125°14'150 8.3
2016-Nov-30 05:26N 45°46' W 125°44'50510.3
2016-Nov-28 04:17N 37°34' W 123°13'811.1
2016-Nov-28 03:33N 37°35' W 123°03'1212.5
2016-Nov-28 02:33N 37°42' W 122°49'1110.8
2016-Nov-28 01:33N 37°46' W 122°37'1212.2
2016-Nov-28 00:33N 37°54' W 122°25'3 2.7
2016-Nov-27 23:32N 37°55' W 122°22'0 0.0
2016-Nov-27 22:29N 37°55' W 122°22'0 0.0
2016-Nov-27 21:32N 37°55' W 122°22'0 0.0
2016-Nov-27 20:26N 37°55' W 122°22'0 0.0
2016-Nov-27 18:20N 37°55' W 122°22'0 0.0
2016-Nov-27 17:26N 37°55' W 122°22'0 0.0
2016-Nov-27 16:32N 37°55' W 122°22'0 0.0
2016-Nov-27 15:32N 37°55' W 122°22'0 0.0
2016-Nov-27 14:32N 37°55' W 122°22'0 0.0
2016-Nov-27 13:32N 37°55' W 122°22'0 0.0
2016-Nov-27 12:32N 37°55' W 122°22'0 0.0
2016-Nov-27 11:32N 37°55' W 122°22'0 0.0
2016-Nov-27 10:20N 37°55' W 122°22'0 0.0
2016-Nov-27 09:32N 37°55' W 122°22'0 0.0
2016-Nov-27 08:32N 37°55' W 122°22'0 0.0
2016-Nov-27 07:32N 37°55' W 122°22'0 0.0
2016-Nov-27 06:32N 37°55' W 122°22'0 0.0
2016-Nov-27 05:32N 37°55' W 122°22'0 0.0
2016-Nov-27 04:32N 37°55' W 122°22'0 0.0
2016-Nov-27 03:32N 37°55' W 122°22'0 0.0
2016-Nov-27 02:29N 37°55' W 122°22'0 0.0
2016-Nov-27 01:32N 37°55' W 122°22'0 0.0
2016-Nov-27 00:32N 37°55' W 122°22'0 0.0
2016-Nov-26 23:20N 37°55' W 122°22'0 0.0
2016-Nov-26 22:32N 37°55' W 122°22'0 0.0
2016-Nov-26 18:14N 37°55' W 122°22'1 0.8
2016-Nov-26 17:33N 37°54' W 122°22'3 2.3
2016-Nov-26 16:25N 37°55' W 122°25'0 0.0
2016-Nov-26 15:30N 37°55' W 122°25'0 0.0
2016-Nov-26 14:33N 37°55' W 122°25'0 0.0
2016-Nov-26 13:33N 37°55' W 122°25'0 0.0
2016-Nov-26 12:30N 37°55' W 122°25'0 0.0
2016-Nov-26 11:33N 37°55' W 122°25'0 0.0
2016-Nov-26 10:30N 37°55' W 122°25'0 0.0
2016-Nov-26 09:30N 37°55' W 122°25'0 0.0
2016-Nov-26 08:33N 37°55' W 122°25'0 0.0
2016-Nov-26 07:30N 37°55' W 122°25'0 0.0
2016-Nov-26 06:33N 37°55' W 122°25'0 0.0
2016-Nov-26 05:33N 37°55' W 122°25'0 0.0
2016-Nov-26 04:33N 37°55' W 122°25'0 0.0
2016-Nov-26 03:30N 37°55' W 122°25'0 0.0
2016-Nov-26 02:33N 37°55' W 122°25'0 0.0
2016-Nov-26 01:27N 37°55' W 122°25'0 0.0
2016-Nov-26 00:30N 37°55' W 122°25'0 0.0
2016-Nov-25 23:30N 37°55' W 122°25'0 0.0
2016-Nov-25 22:24N 37°55' W 122°25'0 0.0
2016-Nov-25 21:33N 37°55' W 122°25'0 0.0
2016-Nov-25 20:33N 37°55' W 122°25'0 0.0
2016-Nov-25 19:30N 37°55' W 122°25'0 0.0
2016-Nov-25 17:30N 37°55' W 122°25'3 2.9
2016-Nov-25 16:33N 37°53' W 122°25'1111.2
2016-Nov-25 15:34N 37°46' W 122°37'1211.5
2016-Nov-25 14:33N 37°40' W 122°49'1111.0
2016-Nov-25 13:33N 37°34' W 123°00'1313.2
2016-Nov-25 12:33N 37°32' W 123°17'  

Dump ship's entire track history